createdAt,value
2023-05-19T00:00:05.724Z,16.48
2023-05-19T00:01:05.801Z,16.57
2023-05-19T00:02:05.979Z,16.62
2023-05-19T00:03:05.962Z,16.64
2023-05-19T00:04:05.912Z,16.58
2023-05-19T00:05:05.961Z,16.48
2023-05-19T00:06:06.073Z,16.41
2023-05-19T00:07:06.070Z,16.41
2023-05-19T00:08:06.140Z,16.41
2023-05-19T00:09:06.210Z,16.47
2023-05-19T00:10:06.248Z,16.51
2023-05-19T00:11:06.346Z,16.50
2023-05-19T00:12:06.363Z,16.50
2023-05-19T00:13:06.418Z,16.54
2023-05-19T00:14:06.467Z,16.37
2023-05-19T00:15:06.463Z,16.38
2023-05-19T00:16:06.529Z,16.47
2023-05-19T00:17:06.567Z,16.51
2023-05-19T00:18:06.638Z,16.47
2023-05-19T00:19:06.728Z,16.51
2023-05-19T00:20:06.717Z,16.47
2023-05-19T00:21:06.756Z,16.48
2023-05-19T00:22:06.777Z,16.44
2023-05-19T00:23:06.803Z,16.38
2023-05-19T00:24:06.846Z,16.47
2023-05-19T00:25:07.313Z,16.52
2023-05-19T00:26:06.900Z,16.50
2023-05-19T00:27:06.930Z,16.43
2023-05-19T00:28:06.949Z,16.51
2023-05-19T00:29:06.976Z,16.51
2023-05-19T00:30:07.076Z,16.41
2023-05-19T00:31:07.053Z,16.41
2023-05-19T00:32:07.180Z,15.92
2023-05-19T00:33:07.167Z,16.10
2023-05-19T00:34:07.162Z,15.89
2023-05-19T00:35:07.207Z,15.41
2023-05-19T00:36:07.244Z,15.65
2023-05-19T00:37:07.300Z,15.77
2023-05-19T00:38:07.342Z,15.86
2023-05-19T00:39:07.393Z,15.92
2023-05-19T00:40:07.420Z,16.01
2023-05-19T00:41:07.481Z,16.07
2023-05-19T00:42:07.501Z,16.07
2023-05-19T00:43:07.527Z,16.01
2023-05-19T00:44:07.614Z,16.08
2023-05-19T00:45:07.642Z,16.10
2023-05-19T00:46:07.797Z,16.16
2023-05-19T00:47:07.771Z,16.03
2023-05-19T00:48:07.806Z,16.00
2023-05-19T00:49:07.782Z,16.13
2023-05-19T00:50:07.816Z,16.17
2023-05-19T00:51:07.835Z,16.28
2023-05-19T00:52:07.873Z,16.28
2023-05-19T00:53:07.888Z,16.38
2023-05-19T00:54:07.949Z,16.45
2023-05-19T00:55:07.953Z,16.48
2023-05-19T00:56:07.984Z,16.50
2023-05-19T00:57:08.008Z,16.48
2023-05-19T00:58:08.057Z,16.50
2023-05-19T00:59:08.090Z,16.50
2023-05-19T01:00:08.137Z,16.50
2023-05-19T01:01:08.198Z,16.52
2023-05-19T01:02:08.178Z,16.51
2023-05-19T01:03:08.281Z,16.55
2023-05-19T01:04:08.324Z,16.57
2023-05-19T01:05:08.301Z,16.55
2023-05-19T01:06:08.440Z,16.55
2023-05-19T01:07:08.394Z,16.58
2023-05-19T01:08:08.411Z,16.58
2023-05-19T01:09:08.487Z,16.58
2023-05-19T01:10:08.524Z,16.57
2023-05-19T01:11:08.563Z,16.59
2023-05-19T01:12:08.652Z,16.61
2023-05-19T01:13:08.641Z,16.58
2023-05-19T01:14:08.664Z,16.61
2023-05-19T01:15:08.701Z,16.62
2023-05-19T01:16:08.905Z,16.64
2023-05-19T01:17:08.766Z,16.65
2023-05-19T01:18:08.846Z,16.62
2023-05-19T01:19:08.894Z,16.62
2023-05-19T01:20:08.900Z,16.64
2023-05-19T01:21:08.971Z,16.59
2023-05-19T01:22:09.834Z,16.57
2023-05-19T01:23:09.010Z,16.48
2023-05-19T01:24:09.076Z,16.40
2023-05-19T01:25:09.110Z,16.44
2023-05-19T01:26:09.165Z,16.43
2023-05-19T01:27:09.186Z,16.38
2023-05-19T01:28:09.215Z,16.44
2023-05-19T01:29:09.273Z,16.44
2023-05-19T01:30:09.273Z,16.32
2023-05-19T01:31:09.310Z,16.24
2023-05-19T01:32:09.378Z,16.28
2023-05-19T01:33:09.495Z,16.24
2023-05-19T01:34:09.490Z,16.16
2023-05-19T01:35:09.513Z,16.14
2023-05-19T01:36:09.547Z,16.11
2023-05-19T01:37:09.580Z,16.11
2023-05-19T01:38:09.623Z,16.16
2023-05-19T01:39:09.643Z,16.20
2023-05-19T01:40:09.687Z,16.24
2023-05-19T01:41:09.738Z,16.23
2023-05-19T01:42:09.752Z,16.23
2023-05-19T01:43:09.793Z,16.23
2023-05-19T01:44:09.805Z,15.97
2023-05-19T01:45:09.819Z,16.04
2023-05-19T01:46:09.861Z,16.11
2023-05-19T01:47:09.860Z,16.13
2023-05-19T01:48:11.189Z,16.13
2023-05-19T01:49:09.947Z,16.10
2023-05-19T01:50:09.974Z,16.18
2023-05-19T01:51:09.986Z,16.17
2023-05-19T01:52:09.997Z,16.21
2023-05-19T01:53:10.022Z,16.25
2023-05-19T01:54:10.860Z,16.24
2023-05-19T01:55:10.124Z,16.17
2023-05-19T01:56:10.182Z,16.11
2023-05-19T01:57:10.165Z,16.16
2023-05-19T01:58:10.198Z,16.24
2023-05-19T01:59:10.191Z,16.21
2023-05-19T02:00:10.219Z,16.21
2023-05-19T02:01:10.305Z,16.18
2023-05-19T02:02:10.269Z,16.11
2023-05-19T02:03:10.310Z,16.18
2023-05-19T02:04:10.379Z,16.23
2023-05-19T02:05:10.374Z,16.16
2023-05-19T02:06:10.886Z,16.13
2023-05-19T02:07:10.479Z,16.13
2023-05-19T02:08:10.540Z,16.16
2023-05-19T02:09:10.582Z,16.17
2023-05-19T02:10:10.673Z,16.11
2023-05-19T02:11:10.670Z,16.11
2023-05-19T02:12:10.721Z,16.14
2023-05-19T02:13:10.721Z,16.17
2023-05-19T02:14:10.750Z,16.04
2023-05-19T02:15:10.767Z,15.87
2023-05-19T02:16:10.838Z,15.96
2023-05-19T02:17:10.824Z,16.03
2023-05-19T02:18:10.826Z,16.06
2023-05-19T02:19:10.865Z,16.10
2023-05-19T02:20:11.015Z,16.16
2023-05-19T02:21:10.941Z,16.10
2023-05-19T02:22:10.977Z,16.03
2023-05-19T02:23:11.013Z,16.07
2023-05-19T02:24:11.043Z,16.08
2023-05-19T02:25:11.078Z,16.07
2023-05-19T02:26:11.159Z,16.13
2023-05-19T02:27:11.101Z,16.17
2023-05-19T02:28:11.138Z,16.17
2023-05-19T02:29:11.193Z,16.17
2023-05-19T02:30:11.190Z,16.14
2023-05-19T02:31:11.230Z,16.18
2023-05-19T02:32:11.431Z,16.06
2023-05-19T02:33:11.388Z,16.11
2023-05-19T02:34:11.393Z,16.14
2023-05-19T02:35:11.335Z,16.17
2023-05-19T02:36:11.386Z,16.14
2023-05-19T02:37:11.342Z,16.18
2023-05-19T02:38:11.376Z,16.14
2023-05-19T02:39:11.409Z,16.21
2023-05-19T02:40:11.454Z,16.18
2023-05-19T02:41:11.465Z,15.94
2023-05-19T02:42:11.482Z,15.86
2023-05-19T02:43:11.494Z,15.70
2023-05-19T02:44:11.516Z,15.59
2023-05-19T02:45:11.561Z,15.67
2023-05-19T02:46:11.748Z,15.77
2023-05-19T02:47:11.597Z,15.76
2023-05-19T02:48:11.660Z,15.79
2023-05-19T02:49:11.669Z,15.69
2023-05-19T02:50:11.668Z,15.74
2023-05-19T02:51:11.668Z,15.74
2023-05-19T02:52:11.735Z,15.79
2023-05-19T02:53:11.725Z,15.83
2023-05-19T02:54:12.390Z,15.84
2023-05-19T02:55:11.752Z,15.89
2023-05-19T02:56:11.749Z,15.90
2023-05-19T02:57:11.743Z,15.83
2023-05-19T02:58:11.781Z,15.89
2023-05-19T02:59:11.822Z,15.96
2023-05-19T03:00:11.816Z,15.97
2023-05-19T03:01:11.849Z,16.00
2023-05-19T03:02:11.978Z,16.01
2023-05-19T03:03:11.935Z,16.06
2023-05-19T03:04:11.893Z,16.08
2023-05-19T03:05:11.897Z,15.72
2023-05-19T03:06:11.925Z,15.94
2023-05-19T03:07:11.959Z,15.83
2023-05-19T03:08:11.969Z,15.92
2023-05-19T03:09:11.999Z,15.84
2023-05-19T03:10:12.025Z,15.92
2023-05-19T03:11:12.038Z,15.90
2023-05-19T03:12:12.044Z,15.79
2023-05-19T03:13:12.062Z,15.89
2023-05-19T03:14:12.081Z,15.89
2023-05-19T03:15:12.105Z,15.86
2023-05-19T03:16:12.141Z,15.82
2023-05-19T03:17:12.190Z,15.90
2023-05-19T03:18:12.198Z,15.90
2023-05-19T03:19:12.216Z,15.94
2023-05-19T03:20:12.224Z,15.98
2023-05-19T03:21:12.226Z,15.86
2023-05-19T03:22:12.230Z,15.93
2023-05-19T03:23:12.257Z,15.94
2023-05-19T03:24:12.295Z,15.89
2023-05-19T03:25:12.300Z,15.90
2023-05-19T03:26:12.302Z,15.90
2023-05-19T03:27:12.336Z,15.86
2023-05-19T03:28:12.350Z,15.76
2023-05-19T03:29:12.415Z,15.82
2023-05-19T03:30:12.444Z,15.79
2023-05-19T03:31:12.505Z,15.72
2023-05-19T03:32:12.517Z,15.72
2023-05-19T03:33:12.761Z,15.72
2023-05-19T03:34:12.673Z,15.74
2023-05-19T03:35:12.635Z,15.76
2023-05-19T03:36:12.704Z,15.70
2023-05-19T03:37:12.723Z,15.70
2023-05-19T03:38:12.738Z,15.66
2023-05-19T03:39:12.793Z,15.70
2023-05-19T03:40:12.860Z,15.69
2023-05-19T03:41:12.866Z,15.70
2023-05-19T03:42:12.939Z,15.70
2023-05-19T03:43:12.950Z,15.63
2023-05-19T03:44:12.941Z,15.67
2023-05-19T03:45:12.963Z,15.67
2023-05-19T03:46:13.036Z,15.66
2023-05-19T03:47:12.958Z,15.56
2023-05-19T03:48:13.051Z,15.63
2023-05-19T03:49:13.042Z,15.56
2023-05-19T03:50:13.059Z,15.60
2023-05-19T03:51:13.119Z,15.69
2023-05-19T03:52:13.148Z,15.72
2023-05-19T03:53:13.149Z,15.63
2023-05-19T03:54:13.168Z,15.62
2023-05-19T03:55:13.203Z,15.69
2023-05-19T03:56:13.230Z,15.69
2023-05-19T03:57:13.226Z,15.69
2023-05-19T03:58:13.265Z,15.77
2023-05-19T03:59:13.320Z,15.82
2023-05-19T04:00:13.358Z,15.80
2023-05-19T04:01:13.375Z,15.73
2023-05-19T04:02:13.432Z,15.66
2023-05-19T04:03:13.518Z,15.77
2023-05-19T04:04:13.454Z,15.83
2023-05-19T04:05:13.451Z,15.84
2023-05-19T04:06:13.457Z,15.86
2023-05-19T04:07:13.469Z,15.92
2023-05-19T04:08:13.504Z,15.84
2023-05-19T04:09:13.522Z,15.84
2023-05-19T04:10:13.553Z,15.76
2023-05-19T04:11:13.567Z,15.74
2023-05-19T04:12:13.570Z,15.74
2023-05-19T04:13:13.643Z,15.69
2023-05-19T04:14:13.684Z,15.80
2023-05-19T04:15:13.679Z,15.74
2023-05-19T04:16:13.762Z,15.84
2023-05-19T04:17:13.776Z,15.57
2023-05-19T04:18:13.901Z,15.82
2023-05-19T04:19:13.911Z,15.92
2023-05-19T04:20:13.922Z,15.97
2023-05-19T04:21:13.915Z,16.01
2023-05-19T04:22:13.948Z,16.04
2023-05-19T04:23:13.949Z,16.11
2023-05-19T04:24:14.000Z,16.21
2023-05-19T04:25:14.029Z,16.25
2023-05-19T04:26:14.036Z,16.23
2023-05-19T04:27:14.071Z,16.31
2023-05-19T04:28:14.136Z,16.37
2023-05-19T04:29:14.185Z,16.40
2023-05-19T04:30:15.221Z,16.45
2023-05-19T04:31:14.334Z,16.40
2023-05-19T04:32:14.352Z,16.44
2023-05-19T04:33:14.418Z,16.50
2023-05-19T04:34:14.461Z,16.57
2023-05-19T04:35:14.516Z,16.57
2023-05-19T04:36:14.555Z,16.69
2023-05-19T04:37:14.559Z,16.44
2023-05-19T04:38:14.580Z,16.68
2023-05-19T04:39:14.657Z,16.64
2023-05-19T04:40:14.677Z,16.68
2023-05-19T04:41:14.771Z,16.90
2023-05-19T04:42:14.792Z,16.88
2023-05-19T04:43:14.872Z,16.92
2023-05-19T04:44:14.876Z,17.06
2023-05-19T04:45:14.918Z,17.16
2023-05-19T04:46:14.979Z,17.26
2023-05-19T04:47:14.963Z,17.31
2023-05-19T04:48:15.015Z,17.29
2023-05-19T04:49:15.009Z,17.41
2023-05-19T04:50:15.009Z,17.51
2023-05-19T04:51:15.037Z,17.54
2023-05-19T04:52:15.034Z,17.51
2023-05-19T04:53:15.031Z,17.58
2023-05-19T04:54:15.076Z,17.64
2023-05-19T04:55:15.085Z,17.70
2023-05-19T04:56:15.086Z,17.78
2023-05-19T04:57:15.116Z,17.71
2023-05-19T04:58:15.105Z,17.78
2023-05-19T04:59:15.077Z,17.85
2023-05-19T05:00:15.133Z,17.87
2023-05-19T05:01:15.130Z,17.87
2023-05-19T05:02:15.162Z,17.88
2023-05-19T05:03:15.280Z,17.85
2023-05-19T05:04:15.266Z,17.87
2023-05-19T05:05:15.179Z,17.92
2023-05-19T05:06:15.189Z,17.84
2023-05-19T05:07:15.224Z,17.87
2023-05-19T05:08:15.221Z,17.85
2023-05-19T05:09:15.229Z,17.87
2023-05-19T05:10:15.272Z,17.88
2023-05-19T05:11:15.310Z,17.92
2023-05-19T05:12:15.339Z,17.92
2023-05-19T05:13:15.341Z,17.99
2023-05-19T05:14:15.366Z,17.97
2023-05-19T05:15:15.364Z,17.85
2023-05-19T05:16:15.453Z,17.87
2023-05-19T05:17:15.416Z,17.90
2023-05-19T05:18:15.464Z,17.81
2023-05-19T05:19:15.499Z,17.78
2023-05-19T05:20:15.500Z,17.80
2023-05-19T05:21:15.550Z,17.78
2023-05-19T05:22:15.590Z,17.82
2023-05-19T05:23:15.591Z,17.80
2023-05-19T05:24:15.620Z,17.80
2023-05-19T05:25:15.605Z,17.67
2023-05-19T05:26:15.633Z,17.70
2023-05-19T05:27:15.632Z,17.68
2023-05-19T05:28:15.637Z,17.71
2023-05-19T05:29:15.621Z,17.76
2023-05-19T05:30:15.627Z,17.74
2023-05-19T05:31:15.670Z,17.61
2023-05-19T05:32:15.652Z,17.77
2023-05-19T05:33:15.734Z,17.80
2023-05-19T05:34:15.678Z,17.88
2023-05-19T05:35:15.706Z,18.02
2023-05-19T05:36:15.781Z,18.11
2023-05-19T05:37:15.792Z,18.13
2023-05-19T05:38:15.854Z,18.29
2023-05-19T05:39:15.880Z,18.33
2023-05-19T05:40:15.924Z,18.45
2023-05-19T05:41:15.919Z,18.48
2023-05-19T05:42:15.925Z,18.56
2023-05-19T05:43:15.987Z,18.50
2023-05-19T05:44:16.006Z,18.58
2023-05-19T05:45:16.020Z,18.58
2023-05-19T05:46:16.142Z,18.56
2023-05-19T05:47:16.135Z,18.53
2023-05-19T05:48:16.236Z,18.49
2023-05-19T05:49:16.182Z,18.58
2023-05-19T05:50:16.176Z,18.50
2023-05-19T05:51:16.189Z,18.43
2023-05-19T05:52:16.239Z,18.43
2023-05-19T05:53:16.283Z,18.55
2023-05-19T05:54:16.342Z,18.60
2023-05-19T05:55:16.363Z,18.69
2023-05-19T05:56:16.384Z,18.74
2023-05-19T05:57:16.387Z,18.82
2023-05-19T05:58:16.369Z,18.73
2023-05-19T05:59:16.425Z,18.80
2023-05-19T06:00:16.475Z,18.79
2023-05-19T06:01:16.493Z,18.86
2023-05-19T06:02:16.581Z,18.80
2023-05-19T06:03:16.599Z,18.82
2023-05-19T06:04:16.643Z,18.64
2023-05-19T06:05:16.685Z,18.66
2023-05-19T06:06:16.636Z,18.55
2023-05-19T06:07:16.687Z,18.52
2023-05-19T06:08:16.716Z,18.62
2023-05-19T06:09:16.763Z,18.60
2023-05-19T06:10:16.793Z,18.58
2023-05-19T06:11:16.858Z,18.60
2023-05-19T06:12:16.874Z,18.67
2023-05-19T06:13:16.869Z,18.45
2023-05-19T06:14:16.942Z,18.56
2023-05-19T06:15:16.962Z,18.70
2023-05-19T06:16:17.069Z,18.69
2023-05-19T06:17:16.997Z,18.79
2023-05-19T06:18:17.038Z,18.89
2023-05-19T06:19:17.124Z,19.04
2023-05-19T06:20:17.112Z,19.14
2023-05-19T06:21:17.205Z,19.24
2023-05-19T06:22:17.166Z,19.31
2023-05-19T06:23:17.182Z,19.42
2023-05-19T06:24:17.180Z,19.32
2023-05-19T06:25:17.190Z,19.54
2023-05-19T06:26:17.218Z,19.11
2023-05-19T06:27:17.245Z,19.18
2023-05-19T06:28:17.300Z,19.20
2023-05-19T06:29:17.367Z,19.24
2023-05-19T06:30:17.402Z,19.17
2023-05-19T06:31:17.466Z,19.31
2023-05-19T06:32:17.459Z,19.34
2023-05-19T06:33:17.470Z,19.34
2023-05-19T06:34:17.530Z,19.18
2023-05-19T06:35:17.563Z,19.10
2023-05-19T06:36:17.621Z,18.79
2023-05-19T06:37:17.643Z,18.86
2023-05-19T06:38:17.673Z,18.43
2023-05-19T06:39:17.680Z,18.64
2023-05-19T06:40:17.710Z,18.76
2023-05-19T06:41:17.752Z,18.84
2023-05-19T06:42:17.770Z,18.67
2023-05-19T06:43:17.838Z,18.59
2023-05-19T06:44:19.803Z,18.89
2023-05-19T06:45:17.833Z,19.07
2023-05-19T06:46:17.915Z,19.27
2023-05-19T06:47:17.857Z,19.38
2023-05-19T06:48:17.883Z,19.50
2023-05-19T06:49:17.784Z,19.60
2023-05-19T06:50:17.799Z,19.60
2023-05-19T06:51:17.779Z,19.71
2023-05-19T06:52:17.869Z,19.71
2023-05-19T06:53:17.773Z,19.71
2023-05-19T06:54:17.775Z,19.64
2023-05-19T06:55:17.746Z,19.62
2023-05-19T06:56:17.742Z,19.65
2023-05-19T06:57:17.731Z,19.32
2023-05-19T06:58:17.717Z,19.11
2023-05-19T06:59:17.720Z,19.27
2023-05-19T07:00:19.817Z,19.28
2023-05-19T07:01:17.750Z,19.30
2023-05-19T07:02:17.735Z,19.37
2023-05-19T07:03:17.761Z,19.42
2023-05-19T07:04:17.686Z,19.44
2023-05-19T07:05:17.703Z,18.87
2023-05-19T07:06:17.670Z,18.70
2023-05-19T07:07:17.684Z,19.03
2023-05-19T07:08:17.659Z,19.11
2023-05-19T07:09:17.655Z,19.20
2023-05-19T07:10:17.632Z,19.35
2023-05-19T07:11:17.650Z,19.55
2023-05-19T07:12:17.634Z,19.64
2023-05-19T07:13:17.636Z,19.75
2023-05-19T07:14:17.635Z,19.85
2023-05-19T07:15:17.605Z,19.97
2023-05-19T07:16:17.607Z,19.88
2023-05-19T07:17:17.659Z,19.52
2023-05-19T07:18:17.605Z,19.69
2023-05-19T07:19:17.629Z,19.88
2023-05-19T07:20:17.580Z,19.83
2023-05-19T07:21:17.576Z,19.42
2023-05-19T07:22:17.567Z,19.48
2023-05-19T07:23:17.618Z,19.61
2023-05-19T07:24:17.553Z,19.68
2023-05-19T07:25:17.548Z,19.57
2023-05-19T07:26:17.548Z,19.38
2023-05-19T07:27:17.528Z,19.64
2023-05-19T07:28:17.539Z,19.75
2023-05-19T07:29:17.556Z,19.83
2023-05-19T07:30:17.520Z,19.92
2023-05-19T07:31:17.512Z,19.91
2023-05-19T07:32:17.556Z,19.83
2023-05-19T07:33:17.495Z,19.93
2023-05-19T07:34:17.472Z,20.03
2023-05-19T07:35:17.494Z,20.11
2023-05-19T07:36:17.465Z,20.16
2023-05-19T07:37:17.467Z,20.22
2023-05-19T07:38:17.464Z,20.30
2023-05-19T07:39:17.595Z,20.40
2023-05-19T07:40:17.541Z,20.53
2023-05-19T07:41:17.452Z,20.57
2023-05-19T07:42:17.429Z,20.66
2023-05-19T07:43:17.442Z,20.67
2023-05-19T07:44:17.402Z,20.74
2023-05-19T07:45:17.436Z,20.83
2023-05-19T07:46:17.475Z,20.67
2023-05-19T07:47:17.468Z,20.60
2023-05-19T07:48:17.599Z,20.60
2023-05-19T07:49:17.551Z,20.68
2023-05-19T07:50:17.609Z,20.71
2023-05-19T07:51:17.655Z,20.20
2023-05-19T07:52:17.691Z,20.53
2023-05-19T07:53:17.727Z,20.37
2023-05-19T07:54:17.796Z,20.64
2023-05-19T07:55:17.819Z,20.63
2023-05-19T07:56:17.864Z,20.56
2023-05-19T07:57:17.912Z,20.70
2023-05-19T07:58:17.943Z,20.80
2023-05-19T07:59:18.000Z,20.85
2023-05-19T08:00:18.050Z,20.93
2023-05-19T08:01:18.079Z,21.01
2023-05-19T08:02:18.188Z,20.98
2023-05-19T08:03:18.382Z,21.04
2023-05-19T08:04:18.354Z,21.15
2023-05-19T08:05:18.219Z,21.18
2023-05-19T08:06:18.226Z,21.18
2023-05-19T08:07:18.252Z,21.29
2023-05-19T08:08:18.267Z,21.22
2023-05-19T08:09:18.291Z,21.26
2023-05-19T08:10:18.362Z,21.31
2023-05-19T08:11:18.332Z,21.18
2023-05-19T08:12:18.568Z,21.35
2023-05-19T08:13:18.511Z,21.46
2023-05-19T08:14:18.478Z,21.28
2023-05-19T08:15:18.542Z,21.42
2023-05-19T08:16:18.655Z,21.35
2023-05-19T08:17:18.647Z,21.22
2023-05-19T08:18:18.663Z,21.32
2023-05-19T08:19:18.801Z,21.28
2023-05-19T08:20:18.750Z,21.34
2023-05-19T08:21:18.793Z,21.46
2023-05-19T08:22:18.825Z,21.44
2023-05-19T08:23:18.805Z,21.53
2023-05-19T08:24:18.825Z,21.52
2023-05-19T08:25:18.858Z,21.53
2023-05-19T08:26:18.870Z,21.52
2023-05-19T08:27:18.945Z,21.48
2023-05-19T08:28:19.079Z,21.50
2023-05-19T08:29:19.018Z,21.62
2023-05-19T08:30:19.087Z,21.66
2023-05-19T08:31:19.212Z,21.75
2023-05-19T08:32:19.169Z,21.87
2023-05-19T08:33:19.180Z,21.89
2023-05-19T08:34:19.206Z,21.96
2023-05-19T08:35:19.225Z,22.00
2023-05-19T08:36:19.264Z,22.08
2023-05-19T08:37:19.294Z,22.06
2023-05-19T08:38:19.301Z,22.11
2023-05-19T08:39:19.355Z,21.63
2023-05-19T08:40:19.374Z,21.92
2023-05-19T08:41:19.456Z,21.99
2023-05-19T08:42:19.429Z,22.07
2023-05-19T08:43:19.440Z,22.27
2023-05-19T08:44:19.566Z,22.41
2023-05-19T08:45:19.516Z,22.47
2023-05-19T08:46:19.596Z,22.38
2023-05-19T08:47:19.965Z,22.61
2023-05-19T08:48:19.620Z,22.62
2023-05-19T08:49:19.656Z,22.78
2023-05-19T08:50:19.720Z,22.68
2023-05-19T08:51:19.727Z,22.76
2023-05-19T08:52:19.764Z,22.78
2023-05-19T08:53:31.738Z,22.87
2023-05-19T08:54:20.829Z,22.88
2023-05-19T08:55:19.780Z,22.82
2023-05-19T08:56:19.774Z,22.98
2023-05-19T08:57:19.767Z,23.02
2023-05-19T08:58:19.756Z,23.08
2023-05-19T08:59:19.750Z,23.23
2023-05-19T09:00:19.741Z,23.08
2023-05-19T09:01:19.801Z,23.49
2023-05-19T09:02:19.732Z,23.74
2023-05-19T09:03:24.035Z,23.93
2023-05-19T09:04:19.783Z,23.94
2023-05-19T09:05:19.773Z,24.17
2023-05-19T09:06:19.697Z,24.25
2023-05-19T09:07:19.721Z,24.41
2023-05-19T09:08:19.696Z,24.54
2023-05-19T09:09:19.705Z,24.73
2023-05-19T09:10:19.670Z,24.76
2023-05-19T09:11:19.683Z,24.34
2023-05-19T09:12:19.676Z,24.32
2023-05-19T09:13:19.684Z,24.11
2023-05-19T09:14:19.647Z,24.39
2023-05-19T09:15:19.643Z,24.48
2023-05-19T09:16:19.717Z,24.32
2023-05-19T09:17:19.710Z,24.34
2023-05-19T09:18:19.616Z,23.76
2023-05-19T09:19:19.694Z,23.59
2023-05-19T09:20:19.660Z,23.79
2023-05-19T09:21:19.624Z,23.96
2023-05-19T09:22:19.627Z,24.01
2023-05-19T09:23:19.600Z,24.01
2023-05-19T09:24:19.586Z,24.27
2023-05-19T09:25:19.591Z,24.35
2023-05-19T09:26:19.578Z,24.25
2023-05-19T09:27:19.568Z,24.30
2023-05-19T09:28:19.561Z,24.61
2023-05-19T09:29:19.570Z,24.85
2023-05-19T09:30:19.705Z,25.00
2023-05-19T09:31:19.664Z,25.16
2023-05-19T09:32:19.780Z,25.26
2023-05-19T09:33:19.785Z,25.33
2023-05-19T09:34:19.768Z,25.27
2023-05-19T09:35:19.819Z,25.24
2023-05-19T09:36:19.845Z,25.06
2023-05-19T09:37:19.861Z,24.79
2023-05-19T09:38:19.882Z,24.83
2023-05-19T09:39:19.942Z,24.81
2023-05-19T09:40:19.950Z,24.93
2023-05-19T09:41:20.967Z,25.05
2023-05-19T09:42:20.059Z,25.19
2023-05-19T09:43:20.091Z,25.30
2023-05-19T09:44:20.110Z,25.33
2023-05-19T09:45:20.137Z,25.33
2023-05-19T09:46:20.179Z,25.40
2023-05-19T09:47:20.166Z,25.55
2023-05-19T09:48:20.268Z,25.51
2023-05-19T09:49:20.258Z,25.44
2023-05-19T09:50:20.258Z,25.37
2023-05-19T09:51:20.278Z,25.10
2023-05-19T09:52:20.314Z,25.00
2023-05-19T09:53:20.360Z,25.07
2023-05-19T09:54:20.401Z,25.22
2023-05-19T09:55:20.414Z,25.26
2023-05-19T09:56:20.465Z,25.23
2023-05-19T09:57:20.443Z,25.37
2023-05-19T09:58:20.466Z,25.27
2023-05-19T09:59:20.475Z,25.34
2023-05-19T10:00:20.491Z,25.45
2023-05-19T10:01:20.587Z,25.48
2023-05-19T10:02:20.597Z,25.38
2023-05-19T10:03:20.649Z,25.40
2023-05-19T10:04:20.675Z,25.20
2023-05-19T10:05:20.832Z,24.99
2023-05-19T10:06:20.713Z,25.03
2023-05-19T10:07:20.733Z,25.00
2023-05-19T10:08:20.750Z,25.09
2023-05-19T10:09:20.778Z,25.07
2023-05-19T10:10:20.796Z,25.02
2023-05-19T10:11:20.851Z,24.93
2023-05-19T10:12:20.879Z,24.97
2023-05-19T10:13:20.921Z,24.90
2023-05-19T10:14:20.961Z,24.81
2023-05-19T10:15:23.163Z,24.97
2023-05-19T10:16:21.111Z,25.07
2023-05-19T10:17:21.066Z,25.10
2023-05-19T10:18:21.096Z,25.22
2023-05-19T10:19:21.162Z,25.24
2023-05-19T10:20:21.182Z,25.33
2023-05-19T10:21:21.199Z,25.40
2023-05-19T10:22:21.242Z,25.26
2023-05-19T10:23:21.257Z,25.53
2023-05-19T10:24:21.336Z,25.67
2023-05-19T10:25:21.322Z,25.95
2023-05-19T10:26:21.341Z,26.05
2023-05-19T10:27:21.405Z,26.12
2023-05-19T10:28:21.452Z,26.45
2023-05-19T10:29:21.473Z,26.59
2023-05-19T10:30:21.520Z,26.70
2023-05-19T10:31:21.558Z,26.79
2023-05-19T10:32:21.798Z,26.98
2023-05-19T10:33:21.681Z,27.14
2023-05-19T10:34:21.643Z,27.27
2023-05-19T10:35:21.673Z,27.25
2023-05-19T10:36:21.714Z,27.14
2023-05-19T10:37:21.745Z,27.28
2023-05-19T10:38:21.756Z,27.35
2023-05-19T10:39:21.787Z,27.48
2023-05-19T10:40:21.829Z,27.56
2023-05-19T10:41:21.845Z,27.62
2023-05-19T10:42:21.856Z,27.64
2023-05-19T10:43:21.879Z,27.71
2023-05-19T10:44:21.893Z,27.68
2023-05-19T10:45:21.900Z,27.69
2023-05-19T10:46:21.922Z,27.49
2023-05-19T10:47:22.003Z,27.46
2023-05-19T10:48:21.902Z,27.48
2023-05-19T10:49:21.918Z,27.48
2023-05-19T10:50:21.900Z,27.46
2023-05-19T10:51:21.913Z,27.33
2023-05-19T10:52:21.985Z,27.31
2023-05-19T10:53:21.940Z,27.38
2023-05-19T10:54:21.955Z,27.45
2023-05-19T10:55:21.966Z,27.27
2023-05-19T10:56:22.005Z,27.20
2023-05-19T10:57:22.021Z,27.10
2023-05-19T10:58:22.040Z,26.83
2023-05-19T10:59:22.068Z,26.98
2023-05-19T11:00:22.099Z,27.13
2023-05-19T11:01:22.123Z,27.24
2023-05-19T11:02:22.638Z,27.35
2023-05-19T11:03:22.125Z,27.52
2023-05-19T11:04:22.232Z,27.62
2023-05-19T11:05:22.209Z,27.71
2023-05-19T11:06:22.253Z,27.78
2023-05-19T11:07:22.336Z,27.93
2023-05-19T11:08:22.340Z,28.10
2023-05-19T11:09:31.094Z,28.10
2023-05-19T11:10:23.356Z,28.12
2023-05-19T11:11:23.433Z,28.10
2023-05-19T11:12:24.316Z,28.15
2023-05-19T11:13:23.043Z,28.07
2023-05-19T11:14:22.446Z,28.16
2023-05-19T11:15:22.456Z,28.29
2023-05-19T11:16:22.545Z,28.36
2023-05-19T11:17:22.563Z,28.50
2023-05-19T11:18:22.563Z,28.57
2023-05-19T11:19:22.795Z,28.48
2023-05-19T11:20:22.663Z,28.54
2023-05-19T11:21:22.722Z,28.47
2023-05-19T11:22:22.737Z,28.44
2023-05-19T11:23:22.785Z,28.30
2023-05-19T11:24:22.747Z,28.03
2023-05-19T11:25:22.746Z,28.00
2023-05-19T11:26:22.808Z,27.95
2023-05-19T11:27:22.856Z,27.99
2023-05-19T11:28:22.907Z,28.10
2023-05-19T11:29:22.932Z,28.12
2023-05-19T11:30:22.989Z,28.10
2023-05-19T11:31:23.086Z,28.00
2023-05-19T11:32:23.552Z,28.27
2023-05-19T11:33:23.071Z,28.40
2023-05-19T11:34:23.112Z,28.42
2023-05-19T11:35:23.103Z,28.66
2023-05-19T11:36:23.129Z,28.70
2023-05-19T11:37:23.140Z,28.90
2023-05-19T11:38:23.140Z,28.78
2023-05-19T11:39:23.198Z,28.39
2023-05-19T11:40:23.236Z,28.56
2023-05-19T11:41:23.215Z,28.32
2023-05-19T11:42:23.279Z,28.64
2023-05-19T11:43:23.359Z,28.74
2023-05-19T11:44:23.360Z,28.81
2023-05-19T11:45:23.415Z,28.68
2023-05-19T11:46:23.486Z,28.71
2023-05-19T11:47:23.499Z,28.75
2023-05-19T11:48:23.610Z,28.82
2023-05-19T11:49:23.537Z,28.75
2023-05-19T11:50:23.640Z,28.84
2023-05-19T11:51:23.665Z,28.90
2023-05-19T11:52:23.653Z,28.88
2023-05-19T11:53:23.683Z,28.75
2023-05-19T11:54:23.711Z,28.86
2023-05-19T11:55:23.746Z,28.74
2023-05-19T11:56:23.737Z,28.82
2023-05-19T11:57:23.785Z,28.86
2023-05-19T11:58:23.793Z,28.79
2023-05-19T11:59:23.843Z,28.84
2023-05-19T12:00:23.846Z,28.36
2023-05-19T12:01:23.884Z,28.63
2023-05-19T12:02:23.904Z,28.73
2023-05-19T12:03:23.966Z,28.78
2023-05-19T12:04:23.974Z,28.87
2023-05-19T12:05:24.082Z,28.78
2023-05-19T12:06:24.112Z,28.67
2023-05-19T12:07:24.085Z,28.73
2023-05-19T12:08:24.124Z,28.71
2023-05-19T12:09:24.177Z,28.77
2023-05-19T12:10:24.219Z,28.86
2023-05-19T12:11:24.249Z,28.68
2023-05-19T12:12:24.286Z,28.86
2023-05-19T12:13:24.293Z,28.29
2023-05-19T12:14:24.323Z,28.51
2023-05-19T12:15:24.355Z,28.47
2023-05-19T12:16:24.537Z,28.67
2023-05-19T12:17:24.504Z,28.64
2023-05-19T12:18:24.502Z,28.66
2023-05-19T12:19:24.641Z,28.53
2023-05-19T12:20:24.571Z,28.58
2023-05-19T12:21:24.549Z,28.53
2023-05-19T12:22:25.560Z,28.68
2023-05-19T12:23:24.548Z,28.73
2023-05-19T12:24:24.549Z,28.40
2023-05-19T12:25:24.549Z,28.20
2023-05-19T12:26:24.530Z,27.92
2023-05-19T12:27:24.520Z,28.26
2023-05-19T12:28:24.522Z,28.39
2023-05-19T12:29:24.511Z,28.36
2023-05-19T12:30:24.509Z,28.42
2023-05-19T12:31:24.543Z,28.57
2023-05-19T12:32:24.557Z,28.68
2023-05-19T12:33:24.489Z,28.82
2023-05-19T12:34:24.489Z,28.84
2023-05-19T12:35:24.483Z,28.86
2023-05-19T12:36:24.513Z,28.95
2023-05-19T12:37:24.556Z,28.95
2023-05-19T12:38:24.596Z,29.12
2023-05-19T12:39:24.646Z,28.71
2023-05-19T12:40:24.691Z,27.99
2023-05-19T12:41:24.717Z,28.44
2023-05-19T12:42:24.769Z,28.71
2023-05-19T12:43:24.795Z,28.95
2023-05-19T12:44:24.939Z,29.08
2023-05-19T12:45:24.862Z,29.01
2023-05-19T12:46:25.014Z,29.19
2023-05-19T12:47:24.988Z,29.05
2023-05-19T12:48:24.942Z,29.19
2023-05-19T12:49:24.977Z,29.32
2023-05-19T12:50:24.996Z,28.97
2023-05-19T12:51:25.053Z,29.19
2023-05-19T12:52:25.119Z,28.94